Time;durP1;ratioP1;P1;durP2;ratioP2;P2;SDS_P1;SDS_P2;PMS_P1;PMS_P2;Temp;Humidity;BMP_temperature;BMP_pressure;BME280_temperature;BME280_humidity;BME280_pressure;Samples;Min_cycle;Max_cycle;Signal;HPM_P1;HPM_P2
2022/10/29 00:00:14;;;;;;;5.03;2.08;;;;;;;;;;4872843;29;20060;-74
2022/10/29 00:02:43;;;;;;;7.90;2.03;;;;;;;;;;4873542;29;20049;-74
2022/10/29 00:05:13;;;;;;;4.63;2.15;;;;;;;;;;4871990;29;20686;-74
2022/10/29 00:07:43;;;;;;;3.03;1.88;;;;;;;;;;4873183;29;20048;-75
2022/10/29 00:10:13;;;;;;;2.83;1.73;;;;;;;;;;4872669;29;20402;-74
2022/10/29 00:12:43;;;;;;;5.70;2.05;;;;;;;;;;4872384;29;20060;-73
2022/10/29 00:15:14;;;;;;;4.10;1.98;;;;;;;;;;4872362;29;20059;-74
2022/10/29 00:17:43;;;;;;;3.47;1.70;;;;;;;;;;4856689;29;20060;-73
2022/10/29 00:20:13;;;;;;;2.40;2.00;;;;;;;;;;4873139;29;20064;-73
2022/10/29 00:22:47;;;;;;;2.47;1.75;;;;;;;;;;4872315;29;20575;-74
2022/10/29 00:25:17;;;;;;;5.75;1.77;;;;;;;;;;4872608;29;20045;-73
2022/10/29 00:27:46;;;;;;;2.80;1.75;;;;;;;;;;4872227;29;20602;-73
2022/10/29 00:30:16;;;;;;;3.65;2.17;;;;;;;;;;4872454;29;20798;-73
2022/10/29 00:32:46;;;;;;;6.30;1.55;;;;;;;;;;4862393;29;20052;-72
2022/10/29 00:35:16;;;;;;;2.92;1.98;;;;;;;;;;4862753;29;20049;-72
2022/10/29 00:37:46;;;;;;;3.55;1.65;;;;;;;;;;4862793;29;20045;-73
2022/10/29 00:40:16;;;;;;;3.28;2.00;;;;;;;;;;4861425;29;20050;-73
2022/10/29 00:42:45;;;;;;;4.35;2.50;;;;;;;;;;4861689;29;20046;-74
2022/10/29 00:45:20;;;;;;;4.50;1.73;;;;;;;;;;4862434;29;20056;-74
2022/10/29 00:47:52;;;;;;;4.18;1.67;;;;;;;;;;4863244;29;20045;-74
2022/10/29 00:50:23;;;;;;;5.15;2.65;;;;;;;;;;4863744;29;20052;-72
2022/10/29 00:52:54;;;;;;;6.07;1.77;;;;;;;;;;4862731;29;20048;-73
2022/10/29 00:55:24;;;;;;;5.70;2.45;;;;;;;;;;4860841;29;20052;-74
2022/10/29 00:57:54;;;;;;;5.63;2.33;;;;;;;;;;4863139;29;20048;-75
2022/10/29 01:00:26;;;;;;;6.55;2.20;;;;;;;;;;4863740;29;20053;-74
2022/10/29 01:02:56;;;;;;;4.15;2.08;;;;;;;;;;4856221;29;20416;-75
2022/10/29 01:05:28;;;;;;;5.22;2.22;;;;;;;;;;4854044;29;20061;-74
2022/10/29 01:07:58;;;;;;;3.47;2.13;;;;;;;;;;4853387;29;20053;-74
2022/10/29 01:10:38;;;;;;;4.18;2.63;;;;;;;;;;4852153;29;20054;-73
2022/10/29 01:13:33;;;;;;;4.30;2.25;;;;;;;;;;4853842;29;20062;-74
2022/10/29 01:16:04;;;;;;;5.95;2.55;;;;;;;;;;4854270;29;20053;-75
2022/10/29 01:19:04;;;;;;;9.50;2.47;;;;;;;;;;4856924;29;20073;-74
2022/10/29 01:21:43;;;;;;;3.03;1.83;;;;;;;;;;4857918;29;20536;-75
2022/10/29 01:24:18;;;;;;;7.75;2.30;;;;;;;;;;4857242;29;20057;-74
2022/10/29 01:27:05;;;;;;;5.47;1.88;;;;;;;;;;4857121;29;20046;-73
2022/10/29 01:30:19;;;;;;;5.68;2.63;;;;;;;;;;4856905;29;20061;-73
2022/10/29 01:33:09;;;;;;;5.45;2.08;;;;;;;;;;4855848;29;20072;-74
2022/10/29 01:35:51;;;;;;;12.88;3.10;;;;;;;;;;4857078;29;20045;-74
2022/10/29 01:38:21;;;;;;;;;;;;;;;;;;4857737;29;20054;-74
2022/10/29 01:41:27;;;;;;;4.95;1.90;;;;;;;;;;4857116;29;20315;-74
2022/10/29 01:44:38;;;;;;;4.20;2.60;;;;;;;;;;4822845;29;20057;-74
2022/10/29 01:47:16;;;;;;;3.20;2.13;;;;;;;;;;4847124;29;20073;-73
2022/10/29 01:49:53;;;;;;;4.72;1.92;;;;;;;;;;4857266;29;20409;-76
2022/10/29 01:52:26;;;;;;;9.75;2.35;;;;;;;;;;4856870;29;20053;-73
2022/10/29 01:54:58;;;;;;;4.15;2.13;;;;;;;;;;4857038;29;20077;-73
2022/10/29 01:57:34;;;;;;;3.88;2.28;;;;;;;;;;4855907;29;20060;-73
2022/10/29 02:00:14;;;;;;;6.45;2.20;;;;;;;;;;4856772;29;20508;-74
2022/10/29 02:02:53;;;;;;;4.15;2.03;;;;;;;;;;4856593;29;20041;-74
2022/10/29 02:05:32;;;;;;;2.75;2.10;;;;;;;;;;4856429;29;20509;-74
2022/10/29 02:08:26;;;;;;;5.00;2.33;;;;;;;;;;4856719;29;20505;-73
2022/10/29 02:11:10;;;;;;;4.07;2.22;;;;;;;;;;4856888;29;20056;-74
2022/10/29 02:13:56;;;;;;;4.55;2.47;;;;;;;;;;4857125;29;20046;-74
2022/10/29 02:16:27;;;;;;;4.15;2.20;;;;;;;;;;4856543;29;20060;-74
2022/10/29 02:18:59;;;;;;;4.40;2.15;;;;;;;;;;4856974;29;20064;-74
2022/10/29 02:21:30;;;;;;;7.85;2.60;;;;;;;;;;4855905;29;20612;-74
2022/10/29 02:24:00;;;;;;;3.92;2.38;;;;;;;;;;4855745;29;20058;-74
2022/10/29 02:26:29;;;;;;;8.45;2.70;;;;;;;;;;4856548;29;20414;-73
2022/10/29 02:29:00;;;;;;;7.20;2.25;;;;;;;;;;4855385;29;20050;-74
2022/10/29 02:31:30;;;;;;;4.25;2.05;;;;;;;;;;4855935;29;20077;-74
2022/10/29 02:34:00;;;;;;;5.78;2.03;;;;;;;;;;4856424;29;20054;-73
2022/10/29 02:36:30;;;;;;;4.97;2.95;;;;;;;;;;4856010;29;20057;-74
2022/10/29 02:39:00;;;;;;;4.65;2.70;;;;;;;;;;4856183;29;20060;-73
2022/10/29 02:41:30;;;;;;;7.60;3.15;;;;;;;;;;4855893;29;20057;-74
2022/10/29 02:44:00;;;;;;;4.53;2.55;;;;;;;;;;4856205;29;20659;-74
2022/10/29 02:46:30;;;;;;;5.78;2.55;;;;;;;;;;4855626;29;20057;-73
2022/10/29 02:49:00;;;;;;;5.95;2.58;;;;;;;;;;4855775;29;20045;-74
2022/10/29 02:51:30;;;;;;;6.28;3.03;;;;;;;;;;4855729;29;20048;-74
2022/10/29 02:53:59;;;;;;;5.25;3.22;;;;;;;;;;4855737;29;20072;-74
2022/10/29 02:56:29;;;;;;;6.63;3.17;;;;;;;;;;4855814;29;20053;-74
2022/10/29 02:58:59;;;;;;;6.63;3.38;;;;;;;;;;4856298;29;20057;-73
2022/10/29 03:01:32;;;;;;;8.13;2.92;;;;;;;;;;4855869;29;20058;-74
2022/10/29 03:04:02;;;;;;;4.25;2.72;;;;;;;;;;4839309;29;20053;-74
2022/10/29 03:06:31;;;;;;;7.03;3.10;;;;;;;;;;4838642;29;20054;-73
2022/10/29 03:09:03;;;;;;;6.38;3.20;;;;;;;;;;4855449;29;20401;-74
2022/10/29 03:11:33;;;;;;;5.75;3.28;;;;;;;;;;4855655;29;20504;-74
2022/10/29 03:14:03;;;;;;;7.15;2.90;;;;;;;;;;4855776;29;20409;-74
2022/10/29 03:16:33;;;;;;;6.55;3.15;;;;;;;;;;4855404;29;20060;-73
2022/10/29 03:19:03;;;;;;;6.72;2.88;;;;;;;;;;4855388;29;20500;-73
2022/10/29 03:21:33;;;;;;;6.05;2.95;;;;;;;;;;4855588;29;20080;-74
2022/10/29 03:24:04;;;;;;;6.50;2.95;;;;;;;;;;4855146;29;20816;-74
2022/10/29 03:26:34;;;;;;;5.13;2.55;;;;;;;;;;4855445;29;20805;-74
2022/10/29 03:29:03;;;;;;;4.43;3.58;;;;;;;;;;4855548;29;20062;-74
2022/10/29 03:31:33;;;;;;;13.75;3.30;;;;;;;;;;4854884;29;20473;-73
2022/10/29 03:34:03;;;;;;;4.70;3.17;;;;;;;;;;4855327;29;20054;-74
2022/10/29 03:36:32;;;;;;;8.18;3.78;;;;;;;;;;4855235;29;20505;-74
2022/10/29 03:39:02;;;;;;;4.78;3.60;;;;;;;;;;4855351;29;20054;-74
2022/10/29 03:41:32;;;;;;;6.28;3.80;;;;;;;;;;4854590;29;20053;-72
2022/10/29 03:44:02;;;;;;;5.55;4.13;;;;;;;;;;4838971;29;20501;-74
2022/10/29 03:46:33;;;;;;;5.75;3.10;;;;;;;;;;4838882;29;20241;-74
2022/10/29 03:49:02;;;;;;;7.93;4.20;;;;;;;;;;4837459;29;20061;-73
2022/10/29 03:51:32;;;;;;;4.50;3.13;;;;;;;;;;4854907;29;20057;-73
2022/10/29 03:54:02;;;;;;;8.82;3.35;;;;;;;;;;4855217;29;20053;-74
2022/10/29 03:56:32;;;;;;;6.72;3.38;;;;;;;;;;4838824;29;20049;-74
2022/10/29 03:59:02;;;;;;;8.73;3.90;;;;;;;;;;4838327;29;20060;-73
2022/10/29 04:01:32;;;;;;;16.77;4.85;;;;;;;;;;4837728;29;20525;-74
2022/10/29 04:04:02;;;;;;;6.97;3.83;;;;;;;;;;4854512;29;20501;-74
2022/10/29 04:06:31;;;;;;;9.70;3.40;;;;;;;;;;4855004;29;20068;-74
2022/10/29 04:09:01;;;;;;;8.57;3.33;;;;;;;;;;4855020;29;20767;-74
2022/10/29 04:11:31;;;;;;;6.38;4.47;;;;;;;;;;4854355;29;20049;-73
2022/10/29 04:14:00;;;;;;;6.05;3.97;;;;;;;;;;4837447;29;20070;-74
2022/10/29 04:16:30;;;;;;;9.40;3.47;;;;;;;;;;4838440;29;20065;-74
2022/10/29 04:19:01;;;;;;;6.50;3.78;;;;;;;;;;4837080;29;20061;-74
2022/10/29 04:21:32;;;;;;;4.47;3.38;;;;;;;;;;4854330;29;20049;-73
2022/10/29 04:24:22;;;;;;;8.80;3.72;;;;;;;;;;4854446;29;20048;-73
2022/10/29 04:27:12;;;;;;;9.07;4.38;;;;;;;;;;4854387;29;20050;-74
2022/10/29 04:30:02;;;;;;;4.38;3.60;;;;;;;;;;4854291;29;20049;-73
2022/10/29 04:32:32;;;;;;;4.82;3.55;;;;;;;;;;4854948;29;20058;-74
2022/10/29 04:35:02;;;;;;;7.38;4.72;;;;;;;;;;4853701;29;20068;-74
2022/10/29 04:37:32;;;;;;;7.82;4.80;;;;;;;;;;4854943;29;20068;-74
2022/10/29 04:40:03;;;;;;;6.30;3.78;;;;;;;;;;4854357;29;20068;-73
2022/10/29 04:42:39;;;;;;;5.15;3.67;;;;;;;;;;4853912;29;20061;-74
2022/10/29 04:45:10;;;;;;;6.78;3.70;;;;;;;;;;4854243;29;20045;-73
2022/10/29 04:47:39;;;;;;;5.93;3.65;;;;;;;;;;4853921;29;20462;-74
2022/10/29 04:50:09;;;;;;;11.55;3.97;;;;;;;;;;4837642;29;20062;-73
2022/10/29 04:52:39;;;;;;;8.40;3.45;;;;;;;;;;4855423;29;20086;-73
2022/10/29 04:55:08;;;;;;;9.75;3.83;;;;;;;;;;4858225;29;20053;-74
2022/10/29 04:57:38;;;;;;;8.45;4.50;;;;;;;;;;4858060;29;20057;-74
2022/10/29 05:00:09;;;;;;;9.70;3.75;;;;;;;;;;4857516;29;20682;-73
2022/10/29 05:02:50;;;;;;;6.32;3.33;;;;;;;;;;4857938;29;20050;-74
2022/10/29 05:05:22;;;;;;;5.80;3.70;;;;;;;;;;4857859;29;20057;-74
2022/10/29 05:07:59;;;;;;;7.50;4.38;;;;;;;;;;4857437;29;20057;-73
2022/10/29 05:10:33;;;;;;;5.15;3.60;;;;;;;;;;4857668;29;20060;-74
2022/10/29 05:13:06;;;;;;;8.30;3.88;;;;;;;;;;4857514;29;20052;-73
2022/10/29 05:15:37;;;;;;;5.55;4.07;;;;;;;;;;4857523;29;20524;-74
2022/10/29 05:18:07;;;;;;;8.85;4.07;;;;;;;;;;4858128;29;20060;-73
2022/10/29 05:20:38;;;;;;;6.57;3.75;;;;;;;;;;4857560;29;20057;-73
2022/10/29 05:23:10;;;;;;;8.07;4.13;;;;;;;;;;4857308;29;20053;-74
2022/10/29 05:25:41;;;;;;;11.07;4.18;;;;;;;;;;4857727;29;20505;-74
2022/10/29 05:28:17;;;;;;;7.30;4.85;;;;;;;;;;4857527;29;20060;-73
2022/10/29 05:30:49;;;;;;;7.00;4.07;;;;;;;;;;4857135;29;20509;-73
2022/10/29 05:33:22;;;;;;;5.07;3.45;;;;;;;;;;4857816;29;20393;-73
2022/10/29 05:35:52;;;;;;;7.75;3.80;;;;;;;;;;4856594;29;20555;-74
2022/10/29 05:38:22;;;;;;;6.88;4.38;;;;;;;;;;4857023;29;20060;-74
2022/10/29 05:40:52;;;;;;;7.60;4.18;;;;;;;;;;4857447;29;20060;-73
2022/10/29 05:43:21;;;;;;;4.95;4.03;;;;;;;;;;4857577;29;20050;-73
2022/10/29 05:45:52;;;;;;;9.25;4.40;;;;;;;;;;4841053;29;20053;-73
2022/10/29 05:48:22;;;;;;;8.23;4.07;;;;;;;;;;4857069;29;20513;-73
2022/10/29 05:50:52;;;;;;;5.97;4.18;;;;;;;;;;4857462;29;20053;-74
2022/10/29 05:53:21;;;;;;;8.32;4.35;;;;;;;;;;4857036;29;20053;-73
2022/10/29 05:55:51;;;;;;;8.32;4.90;;;;;;;;;;4840055;29;20057;-74
2022/10/29 05:58:21;;;;;;;7.38;3.75;;;;;;;;;;4856900;29;20412;-74
2022/10/29 06:00:50;;;;;;;8.20;4.45;;;;;;;;;;4856705;29;20054;-73
2022/10/29 06:03:22;;;;;;;9.23;4.10;;;;;;;;;;4839593;29;20057;-73
2022/10/29 06:05:52;;;;;;;6.57;3.70;;;;;;;;;;4857055;29;20582;-73
2022/10/29 06:08:23;;;;;;;8.00;3.28;;;;;;;;;;4856613;29;20051;-73
2022/10/29 06:10:53;;;;;;;11.40;4.68;;;;;;;;;;4857136;29;20505;-73
2022/10/29 06:13:23;;;;;;;8.60;4.05;;;;;;;;;;4856287;29;20056;-74
2022/10/29 06:15:58;;;;;;;5.57;4.43;;;;;;;;;;4856889;29;20060;-73
2022/10/29 06:18:29;;;;;;;6.35;4.47;;;;;;;;;;4856629;29;20045;-73
2022/10/29 06:21:03;;;;;;;7.47;4.07;;;;;;;;;;4856177;29;20391;-73
2022/10/29 06:23:33;;;;;;;8.18;4.20;;;;;;;;;;4856189;29;20065;-73
2022/10/29 06:26:02;;;;;;;7.47;4.40;;;;;;;;;;4856038;29;20061;-73
2022/10/29 06:28:32;;;;;;;9.23;4.32;;;;;;;;;;4856927;29;20128;-73
2022/10/29 06:31:02;;;;;;;8.18;4.60;;;;;;;;;;4856688;29;20060;-74
2022/10/29 06:33:32;;;;;;;8.65;4.68;;;;;;;;;;4856453;29;20041;-74
2022/10/29 06:36:02;;;;;;;5.88;4.68;;;;;;;;;;4856202;29;20049;-73
2022/10/29 06:38:33;;;;;;;7.93;4.30;;;;;;;;;;4856973;29;20501;-73
2022/10/29 06:41:03;;;;;;;5.28;4.70;;;;;;;;;;4856253;29;20092;-73
2022/10/29 06:43:33;;;;;;;11.80;4.38;;;;;;;;;;4855637;29;20080;-74
2022/10/29 06:46:02;;;;;;;7.32;4.65;;;;;;;;;;4855599;29;20544;-73
2022/10/29 06:48:33;;;;;;;7.55;5.03;;;;;;;;;;4856196;29;20049;-73
2022/10/29 06:51:03;;;;;;;8.05;4.57;;;;;;;;;;4839301;29;20420;-74
2022/10/29 06:53:32;;;;;;;11.50;4.55;;;;;;;;;;4856324;29;20519;-73
2022/10/29 06:56:02;;;;;;;6.70;4.20;;;;;;;;;;4856126;29;20065;-73
2022/10/29 06:58:32;;;;;;;8.93;4.60;;;;;;;;;;4855852;29;20049;-73
2022/10/29 07:01:02;;;;;;;5.35;3.78;;;;;;;;;;4855962;29;20045;-73
2022/10/29 07:03:32;;;;;;;6.85;4.22;;;;;;;;;;4855512;29;20513;-73
2022/10/29 07:06:01;;;;;;;6.38;4.00;;;;;;;;;;4855604;29;20041;-73
2022/10/29 07:08:32;;;;;;;11.82;4.25;;;;;;;;;;4855823;29;20053;-74
2022/10/29 07:11:01;;;;;;;5.57;4.00;;;;;;;;;;4838210;29;20068;-73
2022/10/29 07:13:31;;;;;;;6.72;4.20;;;;;;;;;;4856175;29;20061;-73
2022/10/29 07:16:03;;;;;;;7.38;4.50;;;;;;;;;;4854772;29;20064;-73
2022/10/29 07:18:34;;;;;;;8.73;4.55;;;;;;;;;;4855707;29;20509;-73
2022/10/29 07:21:04;;;;;;;7.07;4.50;;;;;;;;;;4855532;29;20065;-73
2022/10/29 07:23:33;;;;;;;8.32;5.57;;;;;;;;;;4855274;29;20953;-73
2022/10/29 07:26:04;;;;;;;8.30;4.97;;;;;;;;;;4855868;29;20049;-73
2022/10/29 07:28:34;;;;;;;7.80;5.55;;;;;;;;;;4855110;29;20049;-73
2022/10/29 07:31:04;;;;;;;7.53;4.88;;;;;;;;;;4855029;29;20046;-73
2022/10/29 07:33:35;;;;;;;7.78;4.70;;;;;;;;;;4838073;29;20072;-73
2022/10/29 07:36:05;;;;;;;12.15;4.22;;;;;;;;;;4854688;29;20833;-73
2022/10/29 07:38:35;;;;;;;8.38;4.18;;;;;;;;;;4854657;29;20056;-73
2022/10/29 07:41:05;;;;;;;7.15;4.40;;;;;;;;;;4855202;29;20050;-73
2022/10/29 07:43:34;;;;;;;7.53;3.70;;;;;;;;;;4855359;29;20054;-73
2022/10/29 07:46:04;;;;;;;11.38;4.70;;;;;;;;;;4855217;29;20444;-73
2022/10/29 07:48:34;;;;;;;9.52;4.43;;;;;;;;;;4855238;29;20061;-73
2022/10/29 07:51:04;;;;;;;6.00;4.45;;;;;;;;;;4854909;29;20539;-73
2022/10/29 07:53:34;;;;;;;12.15;5.65;;;;;;;;;;4854813;29;20430;-73
2022/10/29 07:56:04;;;;;;;9.48;5.53;;;;;;;;;;4853889;29;20061;-73
2022/10/29 07:58:34;;;;;;;9.75;5.15;;;;;;;;;;4854976;29;20061;-73
2022/10/29 08:01:04;;;;;;;10.70;4.90;;;;;;;;;;4854422;29;20057;-73
2022/10/29 08:03:34;;;;;;;9.52;4.70;;;;;;;;;;4854637;29;20056;-73
2022/10/29 08:06:03;;;;;;;8.30;5.07;;;;;;;;;;4854606;29;20657;-73
2022/10/29 08:08:36;;;;;;;6.80;4.20;;;;;;;;;;4855166;29;20049;-73
2022/10/29 08:11:06;;;;;;;7.80;4.88;;;;;;;;;;4854618;29;20060;-73
2022/10/29 08:13:36;;;;;;;12.50;6.05;;;;;;;;;;4837379;29;20078;-73
2022/10/29 08:16:06;;;;;;;8.88;5.07;;;;;;;;;;4854681;29;20053;-73
2022/10/29 08:18:36;;;;;;;6.88;4.72;;;;;;;;;;4837427;29;20061;-73
2022/10/29 08:21:06;;;;;;;13.00;4.88;;;;;;;;;;4854128;29;20053;-78
2022/10/29 08:23:36;;;;;;;7.28;4.75;;;;;;;;;;4854121;29;20072;-73
2022/10/29 08:26:07;;;;;;;11.75;5.78;;;;;;;;;;4854193;29;20528;-81
2022/10/29 08:28:37;;;;;;;7.43;5.05;;;;;;;;;;4838036;29;20065;-74
2022/10/29 08:31:07;;;;;;;8.95;4.85;;;;;;;;;;4854986;29;20514;-73
2022/10/29 08:33:37;;;;;;;7.25;5.18;;;;;;;;;;4853932;29;20065;-73
2022/10/29 08:36:07;;;;;;;10.23;6.63;;;;;;;;;;4854338;29;20701;-73
2022/10/29 08:38:37;;;;;;;7.95;5.32;;;;;;;;;;4854281;29;20060;-74
2022/10/29 08:41:12;;;;;;;10.77;7.10;;;;;;;;;;4853893;29;20053;-73
2022/10/29 08:43:58;;;;;;;9.80;5.40;;;;;;;;;;4853924;29;20053;-73
2022/10/29 08:46:51;;;;;;;11.30;5.32;;;;;;;;;;4854225;29;20054;-73
2022/10/29 08:49:34;;;;;;;7.72;5.20;;;;;;;;;;4854258;29;20060;-73
2022/10/29 08:52:12;;;;;;;6.95;4.63;;;;;;;;;;4854122;29;20049;-73
2022/10/29 08:54:45;;;;;;;9.00;5.60;;;;;;;;;;4854908;29;20045;-73
2022/10/29 08:57:20;;;;;;;7.45;4.85;;;;;;;;;;4854059;29;20052;-74
2022/10/29 09:00:04;;;;;;;13.25;5.13;;;;;;;;;;4853927;29;20505;-73
2022/10/29 09:02:39;;;;;;;12.60;5.47;;;;;;;;;;4854054;29;20046;-73
2022/10/29 09:05:18;;;;;;;9.40;5.28;;;;;;;;;;4853950;29;20092;-73
2022/10/29 09:07:59;;;;;;;8.65;5.38;;;;;;;;;;4854095;29;20053;-73
2022/10/29 09:10:53;;;;;;;9.63;5.57;;;;;;;;;;4853938;29;20053;-73
2022/10/29 09:14:03;;;;;;;10.88;5.65;;;;;;;;;;4854079;29;20053;-73
2022/10/29 09:16:41;;;;;;;7.57;5.40;;;;;;;;;;4826388;29;20054;-73
2022/10/29 09:19:33;;;;;;;7.60;5.30;;;;;;;;;;4854182;29;20053;-73
2022/10/29 09:22:20;;;;;;;7.30;4.70;;;;;;;;;;4853995;29;20049;-73
2022/10/29 09:25:02;;;;;;;10.45;5.00;;;;;;;;;;4853448;29;20057;-73
2022/10/29 09:27:49;;;;;;;8.27;4.57;;;;;;;;;;4853589;29;20057;-73
2022/10/29 09:30:21;;;;;;;10.82;6.32;;;;;;;;;;4853833;29;20643;-73
2022/10/29 09:33:06;;;;;;;9.40;5.65;;;;;;;;;;4853673;29;20053;-73
2022/10/29 09:35:43;;;;;;;8.43;5.80;;;;;;;;;;4853846;29;20056;-73
2022/10/29 09:38:27;;;;;;;11.02;4.97;;;;;;;;;;4854494;29;20071;-73
2022/10/29 09:41:00;;;;;;;7.90;5.63;;;;;;;;;;4857099;29;20062;-73
2022/10/29 09:43:45;;;;;;;13.43;6.28;;;;;;;;;;4857616;29;20505;-73
2022/10/29 09:46:33;;;;;;;10.32;6.45;;;;;;;;;;4857278;29;20046;-73
2022/10/29 09:49:22;;;;;;;6.88;4.85;;;;;;;;;;4857726;29;20045;-73
2022/10/29 09:52:01;;;;;;;9.27;4.93;;;;;;;;;;4857007;29;20060;-73
2022/10/29 09:54:33;;;;;;;10.10;4.00;;;;;;;;;;4857141;29;20045;-76
2022/10/29 09:57:04;;;;;;;6.50;4.03;;;;;;;;;;4863215;29;20045;-73
2022/10/29 09:59:39;;;;;;;4.22;3.45;;;;;;;;;;4875263;29;20053;-73
2022/10/29 10:02:31;;;;;;;8.48;4.20;;;;;;;;;;4874968;29;20040;-75
2022/10/29 10:05:25;;;;;;;9.70;3.50;;;;;;;;;;4874903;29;20052;-74
2022/10/29 10:08:09;;;;;;;10.63;6.43;;;;;;;;;;4875499;29;20056;-74
2022/10/29 10:11:06;;;;;;;6.63;3.88;;;;;;;;;;4875089;29;20044;-73
2022/10/29 10:13:50;;;;;;;5.97;3.75;;;;;;;;;;4875055;29;20053;-73
2022/10/29 10:16:26;;;;;;;7.68;3.17;;;;;;;;;;4875063;29;20504;-73
2022/10/29 10:18:56;;;;;;;7.13;3.55;;;;;;;;;;4875195;29;20056;-74
2022/10/29 10:21:32;;;;;;;11.13;3.85;;;;;;;;;;4874981;29;20049;-74
2022/10/29 10:24:04;;;;;;;6.97;3.22;;;;;;;;;;4873892;29;20524;-74
2022/10/29 10:26:35;;;;;;;6.93;3.08;;;;;;;;;;4875054;29;20048;-77
2022/10/29 10:29:16;;;;;;;6.45;3.47;;;;;;;;;;4858145;29;20057;-74
2022/10/29 10:31:58;;;;;;;8.10;3.42;;;;;;;;;;4875457;29;20412;-74
2022/10/29 10:34:31;;;;;;;14.35;3.40;;;;;;;;;;4874845;29;20053;-73
2022/10/29 10:37:10;;;;;;;6.57;3.22;;;;;;;;;;4874895;29;20076;-73
2022/10/29 10:40:00;;;;;;;6.95;2.83;;;;;;;;;;4874324;29;20049;-74
2022/10/29 10:42:38;;;;;;;5.07;3.25;;;;;;;;;;4874691;29;20060;-73
2022/10/29 10:45:16;;;;;;;7.93;3.22;;;;;;;;;;4874515;29;20531;-73
2022/10/29 10:47:57;;;;;;;11.00;4.72;;;;;;;;;;4874858;29;20056;-74
2022/10/29 10:50:29;;;;;;;6.18;3.10;;;;;;;;;;4873530;29;20057;-73
2022/10/29 10:53:03;;;;;;;8.50;3.50;;;;;;;;;;4874536;29;20049;-73
2022/10/29 10:55:37;;;;;;;8.02;3.70;;;;;;;;;;4874888;29;20056;-74
2022/10/29 10:58:18;;;;;;;6.50;3.70;;;;;;;;;;4874284;29;20045;-74
2022/10/29 11:00:58;;;;;;;6.32;3.50;;;;;;;;;;4874292;29;20072;-74
2022/10/29 11:03:40;;;;;;;4.72;2.80;;;;;;;;;;4874100;29;20056;-74
2022/10/29 11:06:17;;;;;;;9.20;2.92;;;;;;;;;;4874294;29;20602;-75
2022/10/29 11:09:19;;;;;;;3.97;2.53;;;;;;;;;;4874241;29;20071;-76
2022/10/29 11:11:49;;;;;;;6.70;2.83;;;;;;;;;;4849297;29;20060;-76
2022/10/29 11:14:35;;;;;;;8.02;3.58;;;;;;;;;;4873981;29;20052;-74
2022/10/29 11:17:18;;;;;;;7.60;3.20;;;;;;;;;;4874022;29;20056;-74
2022/10/29 11:19:52;;;;;;;9.90;3.35;;;;;;;;;;4874652;29;20053;-74
2022/10/29 11:22:34;;;;;;;12.32;3.03;;;;;;;;;;4874287;29;20049;-75
2022/10/29 11:26:07;;;;;;;5.78;2.58;;;;;;;;;;4873843;29;20053;-75
2022/10/29 11:28:50;;;;;;;4.70;2.35;;;;;;;;;;4837880;29;20064;-74
2022/10/29 11:31:41;;;;;;;11.50;4.40;;;;;;;;;;4873810;29;20508;-74
2022/10/29 11:34:38;;;;;;;4.38;2.47;;;;;;;;;;4856213;29;20053;-75
2022/10/29 11:37:24;;;;;;;4.25;2.30;;;;;;;;;;4873937;29;20044;-73
2022/10/29 11:40:03;;;;;;;3.67;2.15;;;;;;;;;;4873548;29;20068;-73
2022/10/29 11:42:35;;;;;;;4.20;2.17;;;;;;;;;;4873813;29;20044;-72
2022/10/29 11:45:09;;;;;;;6.65;2.70;;;;;;;;;;4873280;29;20504;-73
2022/10/29 11:48:10;;;;;;;5.10;2.80;;;;;;;;;;4857027;29;20067;-74
2022/10/29 11:51:04;;;;;;;3.20;2.47;;;;;;;;;;4874013;29;20060;-75
2022/10/29 11:54:03;;;;;;;6.40;2.70;;;;;;;;;;4873193;29;20044;-74
2022/10/29 11:56:55;;;;;;;4.43;2.47;;;;;;;;;;4870668;29;20049;-74
2022/10/29 11:59:56;;;;;;;6.03;2.20;;;;;;;;;;4873604;29;20044;-74
2022/10/29 12:02:41;;;;;;;7.70;2.75;;;;;;;;;;4872369;29;20053;-73
2022/10/29 12:05:29;;;;;;;4.50;3.00;;;;;;;;;;4872926;29;20404;-74
2022/10/29 12:08:18;;;;;;;4.47;2.53;;;;;;;;;;4855948;29;20057;-78
2022/10/29 12:11:12;;;;;;;4.28;2.58;;;;;;;;;;4872925;29;20045;-75
2022/10/29 12:14:07;;;;;;;3.78;2.00;;;;;;;;;;4873106;29;20057;-76
2022/10/29 12:16:56;;;;;;;3.92;1.92;;;;;;;;;;4857857;29;20053;-74
2022/10/29 12:19:42;;;;;;;4.90;2.05;;;;;;;;;;4885525;29;20527;-75
2022/10/29 12:23:05;;;;;;;3.20;2.20;;;;;;;;;;4877324;29;20052;-73
2022/10/29 12:25:52;;;;;;;2.97;1.83;;;;;;;;;;4781046;30;20063;-74
2022/10/29 12:28:45;;;;;;;8.18;1.95;;;;;;;;;;4868666;29;20064;-79
2022/10/29 12:31:24;;;;;;;3.63;1.83;;;;;;;;;;4815462;29;20056;-77
2022/10/29 12:34:04;;;;;;;4.95;2.50;;;;;;;;;;4872377;29;20045;-75
2022/10/29 12:36:48;;;;;;;4.70;2.22;;;;;;;;;;4872910;29;20127;-74
2022/10/29 12:39:36;;;;;;;4.30;2.47;;;;;;;;;;4855538;29;20052;-75
2022/10/29 12:42:39;;;;;;;4.82;1.92;;;;;;;;;;4872767;29;20075;-75
2022/10/29 12:45:25;;;;;;;6.55;1.90;;;;;;;;;;4870531;29;20092;-75
2022/10/29 12:48:20;;;;;;;4.28;2.33;;;;;;;;;;4856503;29;20053;-76
2022/10/29 12:51:14;;;;;;;3.65;2.50;;;;;;;;;;4872487;29;20052;-75
2022/10/29 12:53:59;;;;;;;4.93;2.08;;;;;;;;;;4872044;29;20080;-75
2022/10/29 12:56:32;;;;;;;12.10;2.63;;;;;;;;;;4855702;29;20426;-75
2022/10/29 12:59:21;;;;;;;6.40;1.85;;;;;;;;;;4872457;29;20053;-74
2022/10/29 13:01:54;;;;;;;4.20;2.28;;;;;;;;;;4872504;29;20052;-74
2022/10/29 13:05:05;;;;;;;6.72;2.53;;;;;;;;;;4872395;29;20080;-74
2022/10/29 13:07:57;;;;;;;3.75;1.83;;;;;;;;;;4856155;29;20057;-76
2022/10/29 13:10:34;;;;;;;7.30;2.53;;;;;;;;;;4846933;29;20059;-75
2022/10/29 13:13:19;;;;;;;3.13;2.28;;;;;;;;;;4872829;29;20053;-75
2022/10/29 13:16:06;;;;;;;5.20;2.42;;;;;;;;;;4877096;29;20061;-76
2022/10/29 13:18:38;;;;;;;5.53;2.55;;;;;;;;;;4876620;29;20049;-74
2022/10/29 13:21:10;;;;;;;3.80;2.13;;;;;;;;;;4876870;29;20053;-73
2022/10/29 13:23:40;;;;;;;3.42;2.13;;;;;;;;;;4876023;29;20064;-76
2022/10/29 13:26:10;;;;;;;3.90;2.10;;;;;;;;;;4874813;29;20623;-74
2022/10/29 13:28:39;;;;;;;4.32;2.00;;;;;;;;;;4876100;29;20053;-74
2022/10/29 13:31:09;;;;;;;7.05;2.53;;;;;;;;;;4875626;29;20049;-74
2022/10/29 13:33:39;;;;;;;3.50;2.10;;;;;;;;;;4875593;29;20059;-74
2022/10/29 13:36:35;;;;;;;4.35;2.20;;;;;;;;;;4875784;29;20436;-75
2022/10/29 13:39:18;;;;;;;3.90;2.20;;;;;;;;;;4866168;29;20061;-74
2022/10/29 13:41:52;;;;;;;6.53;2.58;;;;;;;;;;4876511;29;20056;-74
2022/10/29 13:44:24;;;;;;;8.32;2.83;;;;;;;;;;4875930;29;20049;-74
2022/10/29 13:47:10;;;;;;;9.05;2.83;;;;;;;;;;4875482;29;20512;-75
2022/10/29 13:49:45;;;;;;;4.47;2.65;;;;;;;;;;4874463;29;20049;-76
2022/10/29 13:52:19;;;;;;;5.95;2.63;;;;;;;;;;4875756;29;20057;-73
2022/10/29 13:54:50;;;;;;;5.80;2.78;;;;;;;;;;4875809;29;20057;-74
2022/10/29 13:57:35;;;;;;;8.48;2.75;;;;;;;;;;4875080;29;20504;-74
2022/10/29 14:00:10;;;;;;;5.20;2.72;;;;;;;;;;4874519;29;20056;-73
2022/10/29 14:02:58;;;;;;;4.00;2.78;;;;;;;;;;4875080;29;20055;-74
2022/10/29 14:05:50;;;;;;;5.43;2.55;;;;;;;;;;4874853;29;20056;-76
2022/10/29 14:09:01;;;;;;;4.78;2.45;;;;;;;;;;4875369;29;20052;-73
2022/10/29 14:11:44;;;;;;;3.72;2.53;;;;;;;;;;4798863;29;20490;-74
2022/10/29 14:14:32;;;;;;;4.05;2.67;;;;;;;;;;4798888;29;20062;-75
2022/10/29 14:17:13;;;;;;;9.80;5.90;;;;;;;;;;4855516;29;20423;-74
2022/10/29 14:19:46;;;;;;;7.25;3.10;;;;;;;;;;4857567;29;20060;-75
2022/10/29 14:22:21;;;;;;;5.82;3.10;;;;;;;;;;4874565;29;20495;-74
2022/10/29 14:24:51;;;;;;;;;;;;;;;;;;4874323;29;20060;-75
2022/10/29 14:27:20;;;;;;;3.88;2.80;;;;;;;;;;4873953;29;19928;-76
2022/10/29 14:29:50;;;;;;;5.60;2.83;;;;;;;;;;4873637;29;20518;-75
2022/10/29 14:32:23;;;;;;;5.18;3.10;;;;;;;;;;4874490;29;20057;-75
2022/10/29 14:34:53;;;;;;;7.38;2.92;;;;;;;;;;4873140;29;20045;-74
2022/10/29 14:37:41;;;;;;;8.35;6.50;;;;;;;;;;4856623;29;20057;-75
2022/10/29 14:40:18;;;;;;;;;;;;;;;;;;4873846;29;20044;-76
2022/10/29 14:42:53;;;;;;;5.15;3.30;;;;;;;;;;4873133;29;19955;-76
2022/10/29 14:45:29;;;;;;;5.15;3.17;;;;;;;;;;4873434;29;20041;-76
2022/10/29 14:48:08;;;;;;;6.47;3.30;;;;;;;;;;4873776;29;20084;-75
2022/10/29 14:50:49;;;;;;;6.03;2.90;;;;;;;;;;4873331;29;20048;-75
2022/10/29 14:53:34;;;;;;;5.45;3.25;;;;;;;;;;4855719;29;20061;-76
2022/10/29 14:56:10;;;;;;;6.78;2.70;;;;;;;;;;4873501;29;20116;-74
2022/10/29 14:58:41;;;;;;;6.47;3.30;;;;;;;;;;4856500;29;20053;-74
2022/10/29 15:01:19;;;;;;;5.50;2.80;;;;;;;;;;4873843;29;20057;-74
2022/10/29 15:04:00;;;;;;;6.22;3.20;;;;;;;;;;4873655;29;20519;-74
2022/10/29 15:06:30;;;;;;;4.75;3.15;;;;;;;;;;4873708;29;20056;-73
2022/10/29 15:09:06;;;;;;;4.95;2.60;;;;;;;;;;4873068;29;20511;-75
2022/10/29 15:11:42;;;;;;;5.82;2.45;;;;;;;;;;4855537;29;20428;-74
2022/10/29 15:14:49;;;;;;;5.38;2.78;;;;;;;;;;4873192;29;20056;-75
2022/10/29 15:17:26;;;;;;;3.58;3.03;;;;;;;;;;4860002;29;20061;-74
2022/10/29 15:20:03;;;;;;;4.97;2.83;;;;;;;;;;4873388;29;20049;-75
2022/10/29 15:22:34;;;;;;;7.70;3.30;;;;;;;;;;4739749;29;3968235;-75
2022/10/29 15:25:13;;;;;;;6.35;3.17;;;;;;;;;;4858008;29;20045;-75
2022/10/29 15:27:43;;;;;;;6.60;3.03;;;;;;;;;;4873770;29;20045;-75
2022/10/29 15:30:27;;;;;;;6.50;3.60;;;;;;;;;;4874143;29;20060;-75
2022/10/29 15:33:02;;;;;;;3.67;1.80;;;;;;;;;;4873909;29;20049;-74
2022/10/29 15:48:08;;;;;;;7.63;2.40;;;;;;;;;;5124968;27;20467;-73
2022/10/29 15:50:42;;;;;;;8.98;3.20;;;;;;;;;;5125274;28;20056;-75